Time;durP1;ratioP1;P1;durP2;ratioP2;P2;SDS_P1;SDS_P2;PMS_P1;PMS_P2;Temp;Humidity;BMP_temperature;BMP_pressure;BME280_temperature;BME280_humidity;BME280_pressure;Samples;Min_cycle;Max_cycle;Signal;HPM_P1;HPM_P2
2024/04/11 00:02:20;;;;;;;8.75;6.15;;;7.80;99.90;;;;;;5492149;26;20225;-62
2024/04/11 00:04:49;;;;;;;8.63;6.87;;;7.80;99.90;;;;;;5492297;26;20229;-62
2024/04/11 00:07:15;;;;;;;6.78;5.95;;;7.80;99.90;;;;;;5491655;26;20918;-61
2024/04/11 00:09:44;;;;;;;7.53;6.07;;;7.70;99.90;;;;;;5491535;26;20261;-62
2024/04/11 00:12:10;;;;;;;7.85;6.10;;;7.70;99.90;;;;;;5491023;26;20310;-61
2024/04/11 00:14:38;;;;;;;7.60;5.43;;;7.70;99.90;;;;;;5491995;26;20232;-61
2024/04/11 00:17:07;;;;;;;7.32;5.65;;;7.70;99.90;;;;;;5491353;26;20312;-63
2024/04/11 00:19:36;;;;;;;7.13;6.43;;;7.60;99.90;;;;;;5492071;26;20265;-61
2024/04/11 00:22:01;;;;;;;9.23;6.88;;;7.60;99.90;;;;;;5491719;26;20220;-62
2024/04/11 00:24:30;;;;;;;11.70;6.00;;;7.60;99.90;;;;;;5491592;26;20259;-62
2024/04/11 00:26:56;;;;;;;10.50;7.47;;;7.60;99.90;;;;;;5490954;26;20505;-61
2024/04/11 00:29:24;;;;;;;10.93;6.30;;;7.60;99.90;;;;;;5490785;26;20658;-63
2024/04/11 00:31:51;;;;;;;9.93;7.32;;;7.60;99.90;;;;;;5494227;26;20312;-61
2024/04/11 00:34:23;;;;;;;8.60;6.53;;;7.50;99.90;;;;;;5494516;26;20313;-62
2024/04/11 00:36:50;;;;;;;9.82;6.97;;;7.50;99.90;;;;;;5494486;26;20296;-61
2024/04/11 00:39:19;;;;;;;8.27;6.30;;;7.50;99.90;;;;;;5494655;26;20376;-61
2024/04/11 00:41:45;;;;;;;5.97;5.30;;;7.50;99.90;;;;;;5494634;26;20730;-62
2024/04/11 00:44:16;;;;;;;9.93;6.25;;;7.50;99.90;;;;;;5494404;26;20225;-62
2024/04/11 00:46:42;;;;;;;10.60;5.72;;;7.50;99.90;;;;;;5494680;26;20243;-62
2024/04/11 00:49:11;;;;;;;8.13;5.80;;;7.50;99.90;;;;;;5494761;26;20286;-61
2024/04/11 00:51:40;;;;;;;7.40;5.63;;;7.50;99.90;;;;;;5495164;26;20264;-62
2024/04/11 00:54:09;;;;;;;8.02;6.20;;;7.40;99.90;;;;;;5494697;26;20268;-61
2024/04/11 00:56:35;;;;;;;8.95;6.10;;;7.50;99.90;;;;;;5494529;26;20273;-61
2024/04/11 00:59:04;;;;;;;8.38;6.57;;;7.40;99.90;;;;;;5498243;26;20257;-61
2024/04/11 01:01:31;;;;;;;12.00;5.95;;;7.40;99.90;;;;;;5502418;26;20272;-62
2024/04/11 01:04:00;;;;;;;11.52;6.05;;;7.40;99.90;;;;;;5500709;26;20272;-62
2024/04/11 01:06:26;;;;;;;9.88;5.63;;;7.40;99.90;;;;;;5497331;26;20312;-62
2024/04/11 01:08:57;;;;;;;8.10;5.60;;;7.40;99.90;;;;;;5496164;26;20213;-61
2024/04/11 01:11:23;;;;;;;8.73;5.60;;;7.30;99.90;;;;;;5494681;26;20241;-61
2024/04/11 01:13:52;;;;;;;7.73;6.17;;;7.40;99.90;;;;;;5494827;26;20337;-62
2024/04/11 01:16:18;;;;;;;7.72;6.75;;;7.40;99.90;;;;;;5493592;26;20221;-62
2024/04/11 01:18:46;;;;;;;10.80;5.90;;;7.30;99.90;;;;;;5494490;26;20349;-61
2024/04/11 01:21:15;;;;;;;7.97;5.80;;;7.30;99.90;;;;;;5493601;26;20841;-61
2024/04/11 01:23:46;;;;;;;9.63;6.22;;;7.30;99.90;;;;;;5493447;26;20236;-62
2024/04/11 01:26:13;;;;;;;7.05;5.50;;;7.30;99.90;;;;;;5494513;26;20745;-61
2024/04/11 01:28:41;;;;;;;8.30;6.15;;;7.30;99.90;;;;;;5493301;26;20217;-62
2024/04/11 01:31:09;;;;;;;7.15;6.40;;;7.40;99.90;;;;;;5493180;26;20824;-61
2024/04/11 01:33:38;;;;;;;10.20;6.15;;;7.40;99.90;;;;;;5493071;26;20738;-62
2024/04/11 01:36:06;;;;;;;6.90;5.47;;;7.40;99.90;;;;;;5492915;26;20220;-61
2024/04/11 01:38:34;;;;;;;6.70;5.97;;;7.40;99.90;;;;;;5493236;26;20201;-61
2024/04/11 01:41:05;;;;;;;7.63;5.93;;;7.40;99.90;;;;;;5492945;26;20625;-62
2024/04/11 01:43:31;;;;;;;8.75;5.10;;;7.50;99.90;;;;;;5492319;26;20801;-62
2024/04/11 01:45:59;;;;;;;6.53;5.93;;;7.50;99.90;;;;;;5495690;26;20286;-62
2024/04/11 01:48:25;;;;;;;8.60;5.90;;;7.60;99.90;;;;;;5507909;26;20257;-61
2024/04/11 01:50:53;;;;;;;7.17;6.03;;;7.60;99.90;;;;;;5504276;26;20210;-62
2024/04/11 01:53:19;;;;;;;8.40;5.45;;;7.60;99.90;;;;;;5493212;26;20650;-62
2024/04/11 01:55:48;;;;;;;6.23;5.10;;;7.60;99.90;;;;;;5493408;26;20216;-62
2024/04/11 01:58:17;;;;;;;8.77;5.78;;;7.60;99.90;;;;;;5492682;26;20506;-61
2024/04/11 02:00:47;;;;;;;7.60;5.75;;;7.60;99.90;;;;;;5492527;26;20286;-62
2024/04/11 02:03:13;;;;;;;7.38;5.65;;;7.60;99.90;;;;;;5493269;26;20229;-61
2024/04/11 02:05:43;;;;;;;7.47;6.10;;;7.50;99.90;;;;;;5492845;26;20217;-62
2024/04/11 02:08:09;;;;;;;6.32;4.85;;;7.50;99.90;;;;;;5492090;26;20252;-61
2024/04/11 02:10:38;;;;;;;8.18;5.10;;;7.50;99.90;;;;;;5491571;26;20224;-62
2024/04/11 02:13:04;;;;;;;9.85;5.38;;;7.40;99.90;;;;;;5491838;26;20308;-62
2024/04/11 02:15:38;;;;;;;9.63;6.07;;;7.50;99.90;;;;;;5492160;26;20217;-62
2024/04/11 02:18:07;;;;;;;9.85;5.93;;;7.40;99.90;;;;;;5492132;26;20505;-64
2024/04/11 02:20:35;;;;;;;8.43;4.85;;;7.40;99.90;;;;;;5491831;26;20217;-62
2024/04/11 02:23:01;;;;;;;10.63;5.50;;;7.40;99.90;;;;;;5499016;26;20253;-60
2024/04/11 02:25:29;;;;;;;7.17;5.27;;;7.40;99.90;;;;;;5492184;26;20764;-62
2024/04/11 02:27:55;;;;;;;6.15;5.35;;;7.40;99.90;;;;;;5491571;26;20308;-61
2024/04/11 02:30:23;;;;;;;8.80;5.70;;;7.40;99.90;;;;;;5496206;26;20216;-61
2024/04/11 02:32:52;;;;;;;7.00;5.32;;;7.40;99.90;;;;;;5493915;26;20282;-62
2024/04/11 02:35:22;;;;;;;9.38;5.80;;;7.30;99.90;;;;;;5491696;26;20217;-62
2024/04/11 02:37:51;;;;;;;7.90;5.10;;;7.40;99.90;;;;;;5492733;26;20213;-61
2024/04/11 02:40:20;;;;;;;6.15;5.50;;;7.40;99.90;;;;;;5498947;26;20217;-62
2024/04/11 02:42:47;;;;;;;8.32;5.63;;;7.40;99.90;;;;;;5491731;26;20253;-61
2024/04/11 02:45:18;;;;;;;7.47;5.60;;;7.40;99.90;;;;;;5491511;26;20251;-61
2024/04/11 02:47:44;;;;;;;7.32;4.82;;;7.40;99.90;;;;;;5491508;26;20240;-61
2024/04/11 02:50:16;;;;;;;7.20;5.40;;;7.40;99.90;;;;;;5491794;26;20251;-61
2024/04/11 02:52:42;;;;;;;7.40;4.97;;;7.40;99.90;;;;;;5492123;26;20244;-61
2024/04/11 02:55:11;;;;;;;8.70;6.43;;;7.40;99.90;;;;;;5491651;26;20251;-60
2024/04/11 02:57:36;;;;;;;7.40;5.70;;;7.40;99.90;;;;;;5491712;26;20217;-61
2024/04/11 03:00:06;;;;;;;8.03;5.47;;;7.40;99.90;;;;;;5491772;26;20213;-61
2024/04/11 03:02:34;;;;;;;6.85;5.07;;;7.40;99.90;;;;;;5491060;26;20838;-62
2024/04/11 03:05:03;;;;;;;7.95;4.97;;;7.40;99.90;;;;;;5491340;26;20648;-62
2024/04/11 03:07:32;;;;;;;8.30;6.32;;;7.40;99.90;;;;;;5491102;26;20339;-62
2024/04/11 03:10:01;;;;;;;8.25;5.57;;;7.40;99.90;;;;;;5491234;26;20256;-61
2024/04/11 03:12:27;;;;;;;7.43;4.68;;;7.40;99.90;;;;;;5490869;26;20221;-61
2024/04/11 03:14:55;;;;;;;6.27;5.00;;;7.40;99.90;;;;;;5491484;26;20268;-62
2024/04/11 03:17:21;;;;;;;5.80;5.00;;;7.40;99.90;;;;;;5490831;26;20584;-61
2024/04/11 03:19:49;;;;;;;7.43;4.97;;;7.40;99.90;;;;;;5491266;26;20217;-61
2024/04/11 03:22:15;;;;;;;7.05;5.00;;;7.40;99.90;;;;;;5490888;26;20938;-61
2024/04/11 03:24:46;;;;;;;4.77;4.27;;;7.40;99.90;;;;;;5491152;26;20217;-61
2024/04/11 03:27:13;;;;;;;4.88;4.30;;;7.40;99.90;;;;;;5491022;26;20289;-62
2024/04/11 03:29:42;;;;;;;8.18;5.63;;;7.40;99.90;;;;;;5491368;26;20211;-62
2024/04/11 03:32:09;;;;;;;7.10;5.63;;;7.40;99.90;;;;;;5495425;26;20228;-62
2024/04/11 03:34:37;;;;;;;6.07;5.40;;;7.40;99.90;;;;;;5495624;26;20264;-62
2024/04/11 03:37:05;;;;;;;8.25;4.75;;;7.40;99.90;;;;;;5493029;26;20213;-61
2024/04/11 03:39:35;;;;;;;8.38;5.10;;;7.40;99.90;;;;;;5491914;26;20247;-61
2024/04/11 03:42:07;;;;;;;7.53;5.40;;;7.40;99.90;;;;;;5493427;26;20255;-60
2024/04/11 03:44:36;;;;;;;8.48;5.32;;;7.40;99.90;;;;;;5493208;26;20243;-62
2024/04/11 03:47:08;;;;;;;7.60;4.82;;;7.50;99.90;;;;;;5493217;26;20209;-61
2024/04/11 03:49:37;;;;;;;5.93;4.30;;;7.50;99.90;;;;;;5493566;26;20205;-61
2024/04/11 03:52:06;;;;;;;5.80;4.53;;;7.50;99.90;;;;;;5492452;26;20308;-61
2024/04/11 03:54:35;;;;;;;7.13;5.10;;;7.50;99.90;;;;;;5491844;26;20213;-62
2024/04/11 03:57:07;;;;;;;7.95;5.15;;;7.50;99.90;;;;;;5492797;26;20247;-62
2024/04/11 03:59:36;;;;;;;8.85;4.47;;;7.60;99.90;;;;;;5492577;26;20202;-61
2024/04/11 04:02:02;;;;;;;5.45;4.20;;;7.60;99.90;;;;;;5491326;26;20273;-61
2024/04/11 04:04:30;;;;;;;6.27;4.60;;;7.60;99.90;;;;;;5490909;26;20683;-62
2024/04/11 04:06:56;;;;;;;8.60;4.30;;;7.60;99.90;;;;;;5502876;26;20466;-62
2024/04/11 04:09:25;;;;;;;4.90;4.03;;;7.60;99.90;;;;;;5501441;26;20289;-61
2024/04/11 04:13:33;;;;;;;6.80;4.53;;;7.70;99.90;;;;;;5592844;25;20684;-60
2024/04/11 04:16:01;;;;;;;6.43;5.18;;;7.70;99.90;;;;;;5551519;25;20243;-61
2024/04/11 04:18:30;;;;;;;6.70;4.25;;;7.70;99.90;;;;;;5549195;25;20571;-62
2024/04/11 04:20:57;;;;;;;9.20;4.25;;;7.70;99.90;;;;;;5548648;25;20227;-62
2024/04/11 04:23:26;;;;;;;11.40;4.50;;;7.70;99.90;;;;;;5549116;25;20267;-61
2024/04/11 04:25:59;;;;;;;6.88;4.57;;;7.70;99.90;;;;;;5547779;25;20830;-61
2024/04/11 04:28:30;;;;;;;4.85;4.25;;;7.70;99.90;;;;;;5547366;25;20230;-63
2024/04/11 04:31:12;;;;;;;7.18;4.45;;;7.70;99.90;;;;;;5547543;25;20238;-61
2024/04/11 04:33:41;;;;;;;4.93;4.38;;;7.70;99.90;;;;;;5547622;25;20230;-60
2024/04/11 04:36:08;;;;;;;5.47;4.75;;;7.70;99.90;;;;;;5548906;25;20224;-61
2024/04/11 04:38:37;;;;;;;4.93;4.10;;;7.70;99.90;;;;;;5552485;25;20257;-61
2024/04/11 04:41:03;;;;;;;6.78;4.70;;;7.80;99.90;;;;;;5553048;25;20249;-61
2024/04/11 04:43:32;;;;;;;7.70;5.45;;;7.80;99.90;;;;;;5555594;25;20296;-60
2024/04/11 04:46:00;;;;;;;6.43;4.47;;;7.80;99.90;;;;;;5554854;25;20280;-61
2024/04/11 04:48:29;;;;;;;4.68;4.13;;;7.90;99.90;;;;;;5554960;25;20324;-61
2024/04/11 04:50:55;;;;;;;7.97;4.97;;;8.00;99.90;;;;;;5558147;25;20203;-61
2024/04/11 04:53:25;;;;;;;7.47;4.75;;;8.10;99.90;;;;;;5561000;25;20249;-61
2024/04/11 04:55:52;;;;;;;6.28;4.40;;;8.30;99.90;;;;;;5554871;25;20212;-61
2024/04/11 04:58:20;;;;;;;5.03;4.25;;;8.50;99.90;;;;;;5551221;25;20246;-62
2024/04/11 05:00:47;;;;;;;6.78;3.60;;;8.70;99.90;;;;;;5546304;25;20328;-61
2024/04/11 05:03:18;;;;;;;5.85;3.92;;;8.90;99.90;;;;;;5546425;25;20284;-61
2024/04/11 05:05:44;;;;;;;6.53;4.40;;;9.00;99.90;;;;;;5546594;25;20223;-61
2024/04/11 05:08:14;;;;;;;8.32;4.25;;;9.10;99.90;;;;;;5546890;25;20550;-61
2024/04/11 05:10:40;;;;;;;5.70;3.97;;;9.10;99.90;;;;;;5545822;25;20266;-62
2024/04/11 05:13:09;;;;;;;5.33;4.17;;;9.20;99.90;;;;;;5545798;25;20321;-61
2024/04/11 05:15:36;;;;;;;3.75;3.45;;;9.30;99.90;;;;;;5545509;25;20491;-61
2024/04/11 05:18:06;;;;;;;4.27;3.23;;;9.50;99.90;;;;;;5545575;25;20251;-60
2024/04/11 05:20:35;;;;;;;4.13;3.73;;;9.60;99.90;;;;;;5546290;25;20511;-61
2024/04/11 05:23:06;;;;;;;9.93;3.60;;;9.70;99.90;;;;;;5542572;25;20512;-61
2024/04/11 05:25:33;;;;;;;4.20;3.30;;;9.90;99.90;;;;;;5532193;26;20452;-59
2024/04/11 05:28:07;;;;;;;3.60;3.30;;;9.90;99.90;;;;;;5530323;26;20449;-61
2024/04/11 05:30:33;;;;;;;5.53;3.23;;;10.00;99.90;;;;;;5530860;26;20837;-61
2024/04/11 05:33:04;;;;;;;6.00;2.80;;;10.10;99.90;;;;;;5530065;26;20472;-60
2024/04/11 05:35:30;;;;;;;3.80;3.47;;;10.10;99.90;;;;;;5530746;26;21053;-61
2024/04/11 05:38:01;;;;;;;4.40;3.03;;;10.20;99.90;;;;;;5531945;26;20509;-61
2024/04/11 05:40:28;;;;;;;7.17;3.27;;;10.30;99.90;;;;;;5531158;26;20876;-62
2024/04/11 05:42:56;;;;;;;4.83;2.73;;;10.40;99.90;;;;;;5531713;26;20457;-61
2024/04/11 05:45:24;;;;;;;3.37;3.07;;;10.50;99.90;;;;;;5533410;26;20542;-61
2024/04/11 05:47:53;;;;;;;4.83;2.90;;;10.50;99.90;;;;;;5537803;26;20946;-61
2024/04/11 05:50:19;;;;;;;3.03;2.50;;;10.60;99.40;;;;;;5534350;26;20496;-60
2024/04/11 05:52:49;;;;;;;5.10;3.13;;;10.70;98.80;;;;;;5532148;26;20465;-62
2024/04/11 05:55:18;;;;;;;3.90;3.13;;;10.80;98.10;;;;;;5531851;26;20500;-62
2024/04/11 05:57:46;;;;;;;4.33;3.13;;;10.90;97.30;;;;;;5531864;26;20582;-61
2024/04/11 06:00:13;;;;;;;5.23;3.00;;;10.90;96.60;;;;;;5531611;26;20441;-61
2024/04/11 06:02:41;;;;;;;4.50;2.87;;;11.00;96.10;;;;;;5529313;26;20453;-61
2024/04/11 06:05:07;;;;;;;7.83;3.10;;;11.10;95.50;;;;;;5529404;26;20554;-60
2024/04/11 06:07:39;;;;;;;5.40;3.10;;;11.20;94.90;;;;;;5529547;26;20433;-62
2024/04/11 06:10:05;;;;;;;6.07;2.20;;;11.20;93.90;;;;;;5529938;26;20452;-62
2024/04/11 06:12:36;;;;;;;6.50;2.73;;;11.20;93.40;;;;;;5530864;26;20580;-61
2024/04/11 06:15:03;;;;;;;5.63;3.10;;;11.20;93.00;;;;;;5531325;26;20405;-62
2024/04/11 06:17:31;;;;;;;5.70;2.27;;;11.20;92.80;;;;;;5529531;26;20508;-61
2024/04/11 06:20:01;;;;;;;3.43;2.50;;;11.20;92.40;;;;;;5530023;26;20555;-61
2024/04/11 06:22:29;;;;;;;2.47;2.07;;;11.20;92.10;;;;;;5530110;26;20465;-62
2024/04/11 06:24:57;;;;;;;4.80;2.43;;;11.20;91.80;;;;;;5530245;26;20554;-63
2024/04/11 06:27:26;;;;;;;6.37;2.73;;;11.20;91.60;;;;;;5537834;26;20452;-63
2024/04/11 06:29:58;;;;;;;4.83;2.67;;;11.30;91.50;;;;;;5539932;26;20516;-63
2024/04/11 06:32:31;;;;;;;6.33;2.30;;;11.40;91.30;;;;;;5536496;26;20461;-61
2024/04/11 06:34:57;;;;;;;4.17;2.50;;;11.50;90.80;;;;;;5529437;26;20441;-62
2024/04/11 06:37:25;;;;;;;5.63;3.00;;;11.60;90.10;;;;;;5530868;26;21013;-62
2024/04/11 06:39:51;;;;;;;3.03;2.47;;;11.80;89.00;;;;;;5530370;26;20516;-62
2024/04/11 06:42:19;;;;;;;5.77;2.30;;;11.90;88.10;;;;;;5532158;26;20586;-61
2024/04/11 06:44:45;;;;;;;5.90;2.20;;;12.00;85.40;;;;;;5532910;26;20220;-64
2024/04/11 06:47:18;;;;;;;3.03;2.20;;;12.10;83.70;;;;;;5531332;26;20552;-62
2024/04/11 06:49:45;;;;;;;3.87;2.23;;;12.30;81.90;;;;;;5529767;26;20744;-63
2024/04/11 06:52:16;;;;;;;5.97;2.27;;;12.50;79.80;;;;;;5530064;26;20445;-62
2024/04/11 06:54:43;;;;;;;2.70;2.17;;;12.70;77.90;;;;;;5529358;26;20504;-62
2024/04/11 06:57:14;;;;;;;4.47;2.27;;;12.80;75.90;;;;;;5529369;26;20520;-62
2024/04/11 06:59:40;;;;;;;3.37;1.53;;;13.00;74.10;;;;;;5531454;26;20516;-62
2024/04/11 07:02:08;;;;;;;5.33;1.97;;;13.10;72.70;;;;;;5530891;26;20571;-62
2024/04/11 07:04:37;;;;;;;7.63;2.90;;;13.20;70.90;;;;;;5530958;26;20254;-62
2024/04/11 07:07:08;;;;;;;3.30;1.70;;;13.30;69.70;;;;;;5529840;26;20488;-62
2024/04/11 07:09:37;;;;;;;3.37;2.90;;;13.30;68.40;;;;;;5530277;26;20452;-63
2024/04/11 07:12:10;;;;;;;2.70;1.90;;;13.20;67.70;;;;;;5531757;26;20502;-62
2024/04/11 07:14:38;;;;;;;2.30;1.63;;;13.20;67.10;;;;;;5530174;26;20441;-61
2024/04/11 07:17:11;;;;;;;5.20;2.17;;;13.20;66.20;;;;;;5529999;26;20496;-60
2024/04/11 07:19:42;;;;;;;6.73;1.77;;;13.10;65.70;;;;;;5530235;26;20441;-61
2024/04/11 07:22:18;;;;;;;3.30;1.80;;;13.00;65.30;;;;;;5528870;26;20501;-60
2024/04/11 07:24:43;;;;;;;3.33;1.43;;;13.10;65.20;;;;;;5528978;26;20495;-61
2024/04/11 07:27:17;;;;;;;3.00;1.87;;;13.00;64.40;;;;;;5528680;26;20445;-62
2024/04/11 07:29:45;;;;;;;4.40;1.90;;;13.00;64.40;;;;;;5528381;26;20255;-61
2024/04/11 07:32:14;;;;;;;2.67;1.77;;;12.90;64.00;;;;;;5528828;26;20448;-62
2024/04/11 07:34:43;;;;;;;2.87;1.73;;;12.90;63.50;;;;;;5528672;26;20444;-61
2024/04/11 07:37:13;;;;;;;3.13;2.10;;;12.80;63.50;;;;;;5527899;26;20449;-61
2024/04/11 07:39:38;;;;;;;2.33;1.77;;;12.80;63.00;;;;;;5527934;26;20519;-61
2024/04/11 07:44:49;;;;;;;2.40;1.57;;;12.70;63.10;;;;;;5528096;26;20215;-62
2024/04/11 07:47:16;;;;;;;3.47;1.90;;;12.70;63.10;;;;;;5527513;26;20436;-60
2024/04/11 07:49:47;;;;;;;4.30;1.90;;;12.70;63.00;;;;;;5528515;26;20448;-63
2024/04/11 07:52:13;;;;;;;2.57;1.90;;;12.70;63.00;;;;;;5528317;26;20552;-62
2024/04/11 07:54:43;;;;;;;4.57;2.50;;;12.70;62.90;;;;;;5528450;26;20445;-60
2024/04/11 07:57:09;;;;;;;3.80;2.13;;;12.70;62.90;;;;;;5530064;26;20247;-61
2024/04/11 07:59:38;;;;;;;3.00;2.37;;;12.90;62.90;;;;;;5529563;26;20448;-61
2024/04/11 08:02:04;;;;;;;5.27;1.80;;;12.90;62.50;;;;;;5527774;26;20957;-62
2024/04/11 08:04:32;;;;;;;2.13;1.70;;;12.90;62.40;;;;;;5528620;26;20558;-60
2024/04/11 08:07:00;;;;;;;5.27;1.77;;;12.90;63.10;;;;;;5529559;26;20603;-61
2024/04/11 08:09:40;;;;;;;3.87;1.47;;;12.90;62.20;;;;;;5529927;26;20501;-61
2024/04/11 08:12:07;;;;;;;3.73;1.60;;;12.90;61.80;;;;;;5530576;26;20501;-62
2024/04/11 08:14:36;;;;;;;3.97;1.87;;;12.90;61.50;;;;;;5528861;26;21043;-62
2024/04/11 08:17:02;;;;;;;2.87;2.00;;;12.90;61.40;;;;;;5534080;26;20445;-61
2024/04/11 08:19:30;;;;;;;3.33;1.80;;;12.90;61.20;;;;;;5537747;26;20528;-62
2024/04/11 08:21:56;;;;;;;1.80;1.53;;;12.90;61.10;;;;;;5533089;26;20929;-62
2024/04/11 08:24:29;;;;;;;5.83;1.93;;;13.00;61.10;;;;;;5529169;26;20472;-61
2024/04/11 08:26:55;;;;;;;5.60;2.07;;;12.90;60.90;;;;;;5528891;26;20543;-61
2024/04/11 08:29:23;;;;;;;5.60;1.87;;;13.00;61.40;;;;;;5528573;26;20517;-61
2024/04/11 08:31:49;;;;;;;5.53;1.80;;;12.90;62.20;;;;;;5527862;26;20268;-58
2024/04/11 08:34:20;;;;;;;4.30;1.53;;;12.80;63.50;;;;;;5528531;26;20573;-61
2024/04/11 08:36:46;;;;;;;4.10;1.90;;;12.70;64.60;;;;;;5527850;26;20204;-61
2024/04/11 08:39:15;;;;;;;4.70;1.50;;;12.70;65.80;;;;;;5528486;26;20942;-61
2024/04/11 08:41:43;;;;;;;6.80;2.27;;;12.70;66.50;;;;;;5527787;26;20220;-62
2024/04/11 08:44:12;;;;;;;4.50;2.10;;;12.80;66.40;;;;;;5527186;26;20453;-62
2024/04/11 08:46:39;;;;;;;7.73;2.07;;;12.90;66.40;;;;;;5526827;26;20575;-61
2024/04/11 08:49:07;;;;;;;4.43;2.00;;;13.00;66.30;;;;;;5528445;26;20453;-61
2024/04/11 08:51:36;;;;;;;4.20;1.80;;;13.10;66.20;;;;;;5528529;26;20492;-61
2024/04/11 08:54:07;;;;;;;3.40;1.67;;;13.10;65.90;;;;;;5530925;26;20993;-62
2024/04/11 08:56:33;;;;;;;2.63;1.50;;;13.20;65.70;;;;;;5532240;26;20445;-61
2024/04/11 08:59:05;;;;;;;3.73;2.00;;;13.40;65.50;;;;;;5532021;26;20855;-65
2024/04/11 09:01:30;;;;;;;4.03;1.87;;;13.40;65.00;;;;;;5532834;26;20445;-61
2024/04/11 09:03:59;;;;;;;4.10;1.57;;;13.60;64.90;;;;;;5532785;26;21037;-61
2024/04/11 09:06:28;;;;;;;4.20;2.33;;;13.70;64.20;;;;;;5532588;26;20561;-59
2024/04/11 09:08:59;;;;;;;3.73;2.00;;;13.80;63.60;;;;;;5531783;26;20449;-60
2024/04/11 09:11:26;;;;;;;6.00;2.77;;;13.80;63.40;;;;;;5532709;26;20508;-62
2024/04/11 09:13:54;;;;;;;5.90;1.50;;;13.80;63.10;;;;;;5532335;26;20826;-62
2024/04/11 09:16:27;;;;;;;13.80;2.03;;;13.80;62.80;;;;;;5531629;26;20489;-62
2024/04/11 09:19:04;;;;;;;4.70;2.40;;;13.80;62.90;;;;;;5531288;26;20495;-61
2024/04/11 09:21:31;;;;;;;2.97;1.60;;;13.80;63.50;;;;;;5530925;26;20561;-59
2024/04/11 09:24:00;;;;;;;6.00;1.90;;;13.80;64.10;;;;;;5531916;26;20904;-60
2024/04/11 09:26:27;;;;;;;5.37;1.70;;;13.60;65.10;;;;;;5531715;26;20868;-62
2024/04/11 09:28:56;;;;;;;8.90;2.10;;;13.50;66.60;;;;;;5531771;26;20452;-60
2024/04/11 09:31:29;;;;;;;3.80;1.90;;;13.40;68.20;;;;;;5530387;26;20448;-62
2024/04/11 09:33:59;;;;;;;4.97;3.20;;;13.30;69.60;;;;;;5530859;26;20913;-62
2024/04/11 09:36:27;;;;;;;5.67;1.73;;;13.30;71.10;;;;;;5531157;26;20496;-61
2024/04/11 09:39:05;;;;;;;3.87;1.90;;;13.40;72.60;;;;;;5531979;26;20441;-60
2024/04/11 09:41:34;;;;;;;3.13;1.83;;;13.50;73.90;;;;;;5531707;26;20448;-61
2024/04/11 09:44:06;;;;;;;2.27;1.50;;;13.70;75.10;;;;;;5533468;26;20460;-61
2024/04/11 09:46:41;;;;;;;3.27;1.83;;;13.80;75.40;;;;;;5532144;26;20445;-61
2024/04/11 09:49:12;;;;;;;3.17;2.10;;;13.90;76.70;;;;;;5531993;26;20550;-61
2024/04/11 09:51:41;;;;;;;3.40;2.13;;;14.00;77.10;;;;;;5531874;26;20560;-62
2024/04/11 09:54:13;;;;;;;4.57;2.10;;;14.00;77.10;;;;;;5531143;26;20469;-62
2024/04/11 09:56:42;;;;;;;2.83;1.80;;;14.10;77.50;;;;;;5530828;26;20501;-62
2024/04/11 09:59:12;;;;;;;4.90;1.70;;;14.20;77.80;;;;;;5531914;26;21083;-61
2024/04/11 10:01:41;;;;;;;4.20;1.90;;;14.40;78.10;;;;;;5534302;26;20449;-60
2024/04/11 10:04:21;;;;;;;4.83;1.93;;;14.50;77.20;;;;;;5539028;26;20461;-62
2024/04/11 10:06:52;;;;;;;4.87;1.70;;;14.60;76.40;;;;;;5536143;26;20497;-62
2024/04/11 10:09:20;;;;;;;3.70;1.70;;;14.60;75.10;;;;;;5531492;26;20504;-62
2024/04/11 10:11:47;;;;;;;3.77;2.37;;;14.70;74.10;;;;;;5533394;26;21033;-61
2024/04/11 10:14:20;;;;;;;5.47;2.00;;;14.70;73.00;;;;;;5529923;26;21030;-62
2024/04/11 10:16:55;;;;;;;5.63;1.90;;;14.80;71.50;;;;;;5529677;26;20504;-61
2024/04/11 10:19:26;;;;;;;3.50;1.43;;;14.90;70.40;;;;;;5530051;26;20511;-62
2024/04/11 10:21:54;;;;;;;4.03;1.80;;;15.00;69.10;;;;;;5529494;26;20937;-60
2024/04/11 10:24:31;;;;;;;5.87;1.73;;;15.00;68.30;;;;;;5529139;26;20445;-62
2024/04/11 10:27:09;;;;;;;7.10;2.60;;;15.10;67.60;;;;;;5530490;26;20456;-61
2024/04/11 10:29:43;;;;;;;3.07;1.90;;;15.20;67.20;;;;;;5529557;26;20456;-62
2024/04/11 10:32:18;;;;;;;5.87;1.90;;;15.20;66.80;;;;;;5529336;26;20448;-62
2024/04/11 10:34:48;;;;;;;8.70;2.10;;;15.20;66.70;;;;;;5529889;26;20493;-61
2024/04/11 10:37:23;;;;;;;3.40;1.60;;;15.20;66.40;;;;;;5529838;26;20497;-62
2024/04/11 10:39:54;;;;;;;2.20;1.37;;;15.20;66.20;;;;;;5530776;26;20452;-62
2024/04/11 10:42:24;;;;;;;3.07;1.60;;;15.30;66.00;;;;;;5529461;26;20461;-63
2024/04/11 10:44:54;;;;;;;5.33;2.00;;;15.40;65.60;;;;;;5529429;26;20505;-62
2024/04/11 10:47:22;;;;;;;5.57;1.43;;;15.50;65.00;;;;;;5529263;26;20830;-62
2024/04/11 10:49:51;;;;;;;4.50;2.20;;;15.70;64.50;;;;;;5529480;26;20489;-59
2024/04/11 10:52:21;;;;;;;2.57;1.50;;;15.70;63.60;;;;;;5528610;26;20509;-62
2024/04/11 10:54:54;;;;;;;4.30;2.00;;;15.60;63.40;;;;;;5529440;26;20538;-59
2024/04/11 10:57:20;;;;;;;3.90;2.13;;;15.60;63.40;;;;;;5529048;26;20448;-61
2024/04/11 10:59:53;;;;;;;5.03;2.13;;;15.60;63.50;;;;;;5533743;26;20445;-61
2024/04/11 11:02:23;;;;;;;2.97;1.77;;;15.50;63.40;;;;;;5539936;26;20473;-62
2024/04/11 11:04:54;;;;;;;5.80;2.20;;;15.50;63.50;;;;;;5533931;26;20445;-61
2024/04/11 11:07:23;;;;;;;5.37;1.90;;;15.40;63.70;;;;;;5531544;26;20501;-62
2024/04/11 11:09:57;;;;;;;4.87;2.33;;;15.50;64.10;;;;;;5530729;26;20448;-62
2024/04/11 11:12:24;;;;;;;2.30;1.67;;;15.50;64.90;;;;;;5531067;26;20511;-62
2024/04/11 11:14:55;;;;;;;4.33;2.30;;;15.60;64.10;;;;;;5530688;26;20501;-62
2024/04/11 11:17:27;;;;;;;3.40;1.53;;;15.70;64.30;;;;;;5532395;26;20492;-61
2024/04/11 11:19:56;;;;;;;3.90;1.93;;;15.90;64.00;;;;;;5535761;26;20500;-62
2024/04/11 11:22:29;;;;;;;4.90;1.97;;;16.00;64.30;;;;;;5539502;26;20460;-61
2024/04/11 11:25:00;;;;;;;4.23;1.70;;;16.10;63.50;;;;;;5538712;26;20509;-63
2024/04/11 11:27:28;;;;;;;4.77;1.70;;;16.10;63.40;;;;;;5532476;26;20444;-62
2024/04/11 11:29:57;;;;;;;7.00;2.00;;;16.10;63.60;;;;;;5529788;26;20465;-62
2024/04/11 11:32:26;;;;;;;7.90;2.27;;;16.10;63.70;;;;;;5530059;26;20956;-62
2024/04/11 11:34:55;;;;;;;6.20;1.87;;;16.20;63.60;;;;;;5529144;26;20444;-61
2024/04/11 11:37:21;;;;;;;5.70;2.10;;;16.30;63.50;;;;;;5529272;26;20939;-61
2024/04/11 11:39:55;;;;;;;7.27;1.70;;;16.40;63.50;;;;;;5534842;26;20490;-63
2024/04/11 11:42:23;;;;;;;4.27;1.80;;;16.40;63.40;;;;;;5534053;26;20507;-61
2024/04/11 11:47:45;;;;;;;6.50;1.90;;;16.40;63.50;;;;;;5538608;26;20485;-62
2024/04/11 11:50:19;;;;;;;3.83;1.70;;;16.40;63.60;;;;;;5535871;26;20505;-62
2024/04/11 11:52:50;;;;;;;4.00;1.93;;;16.60;63.50;;;;;;5538263;26;20476;-62
2024/04/11 11:55:17;;;;;;;5.90;2.20;;;16.70;63.20;;;;;;5536036;26;20445;-61
2024/04/11 11:57:54;;;;;;;4.17;1.90;;;16.80;63.10;;;;;;5537991;26;20551;-62
2024/04/11 12:00:22;;;;;;;6.00;2.17;;;16.90;62.90;;;;;;5536604;26;20456;-61
2024/04/11 12:02:56;;;;;;;2.60;1.70;;;17.00;62.90;;;;;;5533469;26;20468;-60
2024/04/11 12:05:23;;;;;;;7.67;1.90;;;16.90;62.90;;;;;;5536608;26;20456;-63
2024/04/11 12:07:58;;;;;;;3.10;1.27;;;17.10;63.20;;;;;;5534811;26;20441;-59
2024/04/11 12:10:29;;;;;;;5.87;2.17;;;17.10;63.20;;;;;;5535718;26;20460;-61
2024/04/11 12:13:18;;;;;;;4.03;2.30;;;17.20;63.30;;;;;;5533527;26;20517;-60
2024/04/11 12:15:45;;;;;;;8.90;1.87;;;17.20;63.40;;;;;;5532880;26;20507;-61
2024/04/11 12:18:20;;;;;;;8.40;1.93;;;17.00;63.60;;;;;;5533718;26;20452;-61
2024/04/11 12:20:47;;;;;;;5.97;1.83;;;17.00;63.90;;;;;;5533833;26;20512;-62
2024/04/11 12:23:15;;;;;;;3.43;1.70;;;17.10;64.20;;;;;;5532185;26;20569;-61
2024/04/11 12:25:41;;;;;;;5.83;1.67;;;17.10;64.40;;;;;;5534798;26;20305;-61
2024/04/11 12:28:11;;;;;;;3.53;1.90;;;17.20;64.40;;;;;;5535082;26;20452;-61
2024/04/11 12:30:38;;;;;;;3.93;1.73;;;17.40;64.30;;;;;;5535241;26;20444;-61
2024/04/11 12:33:08;;;;;;;3.80;1.87;;;17.50;64.20;;;;;;5534946;26;20542;-61
2024/04/11 12:35:45;;;;;;;2.67;1.50;;;17.60;64.20;;;;;;5538923;26;20479;-62
2024/04/11 12:38:16;;;;;;;5.83;1.80;;;17.60;64.30;;;;;;5537058;26;20508;-62
2024/04/11 12:40:48;;;;;;;4.80;2.07;;;17.50;64.80;;;;;;5537292;26;20553;-60
2024/04/11 12:43:17;;;;;;;3.10;1.60;;;17.50;66.30;;;;;;5540208;26;20513;-61
2024/04/11 12:45:52;;;;;;;4.00;2.13;;;17.60;66.20;;;;;;5539408;26;20488;-62
2024/04/11 12:48:20;;;;;;;4.27;1.90;;;17.60;66.40;;;;;;5536151;26;20447;-61
2024/04/11 12:50:50;;;;;;;6.50;2.00;;;17.60;66.80;;;;;;5537469;26;20512;-62
2024/04/11 12:53:21;;;;;;;3.10;1.80;;;17.60;67.00;;;;;;5537632;26;20496;-62
2024/04/11 12:55:52;;;;;;;4.27;1.40;;;17.50;68.00;;;;;;5539552;26;20511;-62
2024/04/11 12:58:24;;;;;;;7.03;2.50;;;17.40;67.80;;;;;;5537871;26;20452;-62
2024/04/11 13:00:57;;;;;;;6.13;1.63;;;17.40;68.10;;;;;;5538154;26;20531;-61
2024/04/11 13:03:34;;;;;;;4.03;1.67;;;17.40;68.40;;;;;;5538957;26;20497;-62
2024/04/11 13:06:08;;;;;;;12.80;2.47;;;17.50;68.50;;;;;;5537473;26;20793;-62
2024/04/11 13:08:36;;;;;;;7.97;2.17;;;17.60;68.40;;;;;;5538715;26;20444;-62